Time;durP1;ratioP1;P1;durP2;ratioP2;P2;SDS_P1;SDS_P2;PMS_P1;PMS_P2;Temp;Humidity;BMP_temperature;BMP_pressure;BME280_temperature;BME280_humidity;BME280_pressure;Samples;Min_cycle;Max_cycle;Signal;HPM_P1;HPM_P2
2022/11/20 00:02:07;;;;;;;122.33;50.23;;;;;;;;;;6173587;28;20006;-79
2022/11/20 00:05:07;;;;;;;117.07;54.60;;;;;;;;;;6174768;28;20021;-79
2022/11/20 00:08:08;;;;;;;123.47;54.00;;;;;;;;;;6173339;28;20042;-79
2022/11/20 00:11:15;;;;;;;122.33;52.27;;;;;;;;;;6171967;28;20011;-79
2022/11/20 00:14:15;;;;;;;134.05;56.47;;;;;;;;;;6174485;28;20399;-80
2022/11/20 00:17:16;;;;;;;115.37;47.17;;;;;;;;;;6174291;28;20022;-79
2022/11/20 00:20:16;;;;;;;121.55;50.10;;;;;;;;;;6174818;28;20134;-79
2022/11/20 00:23:16;;;;;;;114.10;47.97;;;;;;;;;;6174324;28;20015;-79
2022/11/20 00:26:18;;;;;;;110.13;48.17;;;;;;;;;;6174555;28;20034;-78
2022/11/20 00:29:18;;;;;;;102.80;46.75;;;;;;;;;;6174800;28;20360;-79
2022/11/20 00:32:18;;;;;;;112.70;46.63;;;;;;;;;;6174440;28;20014;-79
2022/11/20 00:35:19;;;;;;;107.43;45.23;;;;;;;;;;6172602;28;20015;-80
2022/11/20 00:38:19;;;;;;;120.97;44.72;;;;;;;;;;6171228;28;20065;-80
2022/11/20 00:41:19;;;;;;;91.10;41.27;;;;;;;;;;6174798;28;20033;-79
2022/11/20 00:44:19;;;;;;;115.83;50.50;;;;;;;;;;6173952;28;20011;-80
2022/11/20 00:47:19;;;;;;;131.53;54.80;;;;;;;;;;6156132;28;20018;-80
2022/11/20 00:50:20;;;;;;;116.07;50.07;;;;;;;;;;6173387;28;20073;-79
2022/11/20 00:53:20;;;;;;;111.20;49.97;;;;;;;;;;6174430;28;20019;-79
2022/11/20 00:56:21;;;;;;;114.97;50.30;;;;;;;;;;6172049;28;20019;-79
2022/11/20 00:59:21;;;;;;;115.07;45.37;;;;;;;;;;6172088;28;20015;-79
2022/11/20 01:02:21;;;;;;;103.35;45.72;;;;;;;;;;6173807;28;20387;-78
2022/11/20 01:05:21;;;;;;;121.60;47.00;;;;;;;;;;6173397;28;20057;-79
2022/11/20 01:08:21;;;;;;;108.97;47.93;;;;;;;;;;6181895;28;20042;-79
2022/11/20 01:11:23;;;;;;;98.28;43.42;;;;;;;;;;6181275;28;20022;-79
2022/11/20 01:14:23;;;;;;;105.45;47.70;;;;;;;;;;6196804;28;20517;-79
2022/11/20 01:17:23;;;;;;;105.43;48.53;;;;;;;;;;6199727;28;20058;-78
2022/11/20 01:20:23;;;;;;;125.57;49.57;;;;;;;;;;6179847;28;20023;-79
2022/11/20 01:23:24;;;;;;;95.57;42.67;;;;;;;;;;6180944;28;20022;-80
2022/11/20 01:26:26;;;;;;;128.43;49.17;;;;;;;;;;6179424;28;20447;-79
2022/11/20 01:29:26;;;;;;;107.45;48.25;;;;;;;;;;6196375;28;20018;-79
2022/11/20 01:32:26;;;;;;;116.73;50.13;;;;;;;;;;6195903;28;20403;-79
2022/11/20 01:35:27;;;;;;;114.43;48.67;;;;;;;;;;6196429;28;20035;-79
2022/11/20 01:38:27;;;;;;;106.87;44.60;;;;;;;;;;6197044;28;20038;-80
2022/11/20 01:44:47;;;;;;;114.57;48.88;;;;;;;;;;6196299;28;20042;-79
2022/11/20 01:47:49;;;;;;;95.57;43.70;;;;;;;;;;6197027;28;20038;-79
2022/11/20 01:50:50;;;;;;;105.43;45.42;;;;;;;;;;6197510;28;20062;-79
2022/11/20 01:53:51;;;;;;;139.90;53.25;;;;;;;;;;6196362;28;20403;-79
2022/11/20 01:56:54;;;;;;;131.68;55.13;;;;;;;;;;6197384;28;20105;-79
2022/11/20 01:59:58;;;;;;;162.10;68.63;;;;;;;;;;6176776;28;20057;-79
2022/11/20 02:02:59;;;;;;;146.20;59.75;;;;;;;;;;6179296;28;20056;-79
2022/11/20 02:06:18;;;;;;;139.32;59.22;;;;;;;;;;6196262;28;20525;-79
2022/11/20 02:09:18;;;;;;;143.57;60.22;;;;;;;;;;6192851;28;20449;-79
2022/11/20 02:15:38;;;;;;;140.82;60.13;;;;;;;;;;6195439;28;20034;-79
2022/11/20 02:18:39;;;;;;;133.50;59.67;;;;;;;;;;6178008;28;20478;-79
2022/11/20 02:21:48;;;;;;;142.07;58.20;;;;;;;;;;6179169;28;20113;-78
2022/11/20 02:24:49;;;;;;;131.55;55.08;;;;;;;;;;6195043;28;20030;-79
2022/11/20 02:27:50;;;;;;;114.32;49.13;;;;;;;;;;6200888;28;20073;-79
2022/11/20 02:30:50;;;;;;;110.53;47.50;;;;;;;;;;6199164;28;20026;-79
2022/11/20 02:33:54;;;;;;;116.57;46.33;;;;;;;;;;6200179;28;20387;-79
2022/11/20 02:36:55;;;;;;;124.07;48.22;;;;;;;;;;6201126;28;20030;-79
2022/11/20 02:39:55;;;;;;;103.10;45.53;;;;;;;;;;6199480;28;20061;-79
2022/11/20 02:42:56;;;;;;;116.47;51.07;;;;;;;;;;6200015;28;20030;-79
2022/11/20 02:45:56;;;;;;;132.63;49.97;;;;;;;;;;6201644;28;20022;-79
2022/11/20 02:48:56;;;;;;;105.03;45.53;;;;;;;;;;6201083;28;20030;-79
2022/11/20 02:51:57;;;;;;;108.20;49.73;;;;;;;;;;6200439;28;20467;-79
2022/11/20 02:54:57;;;;;;;134.63;51.83;;;;;;;;;;6199163;28;20378;-79
2022/11/20 02:57:57;;;;;;;129.23;54.58;;;;;;;;;;6199833;28;20072;-78
2022/11/20 03:00:57;;;;;;;116.77;53.73;;;;;;;;;;6183738;28;20030;-79
2022/11/20 03:03:57;;;;;;;123.40;53.33;;;;;;;;;;6182430;28;20041;-79
2022/11/20 03:06:57;;;;;;;113.90;52.30;;;;;;;;;;6199428;28;20034;-79
2022/11/20 03:09:58;;;;;;;120.83;50.13;;;;;;;;;;6198816;28;20050;-78
2022/11/20 03:12:58;;;;;;;123.73;50.13;;;;;;;;;;6198598;28;20022;-78
2022/11/20 03:15:58;;;;;;;115.03;45.47;;;;;;;;;;6199546;28;20018;-78
2022/11/20 03:18:59;;;;;;;126.23;50.33;;;;;;;;;;6197749;28;20026;-79
2022/11/20 03:22:00;;;;;;;110.90;48.40;;;;;;;;;;6197177;28;20011;-78
2022/11/20 03:25:00;;;;;;;113.97;44.53;;;;;;;;;;6198372;28;20030;-78
2022/11/20 03:28:00;;;;;;;104.03;47.80;;;;;;;;;;6199493;28;20026;-78
2022/11/20 03:31:11;;;;;;;113.03;50.17;;;;;;;;;;6180729;28;20482;-79
2022/11/20 03:34:11;;;;;;;99.50;40.60;;;;;;;;;;6199046;28;20540;-79
2022/11/20 03:37:11;;;;;;;113.20;47.93;;;;;;;;;;6180830;28;20022;-78
2022/11/20 03:40:12;;;;;;;115.93;49.37;;;;;;;;;;6198354;28;20014;-78
2022/11/20 03:43:12;;;;;;;124.07;52.30;;;;;;;;;;6199178;28;20017;-78
2022/11/20 03:46:13;;;;;;;115.83;52.87;;;;;;;;;;6201086;28;20017;-78
2022/11/20 03:49:14;;;;;;;108.75;46.58;;;;;;;;;;6199125;28;20025;-78
2022/11/20 03:52:14;;;;;;;126.50;51.17;;;;;;;;;;6199422;28;20058;-78
2022/11/20 03:55:14;;;;;;;114.43;47.83;;;;;;;;;;6199508;28;20025;-79
2022/11/20 03:58:14;;;;;;;114.20;48.33;;;;;;;;;;6198743;28;20041;-78
2022/11/20 04:01:16;;;;;;;109.53;46.35;;;;;;;;;;6182302;28;20018;-78
2022/11/20 04:04:16;;;;;;;;;;;;;;;;;;6195261;28;20030;-76
2022/11/20 04:07:16;;;;;;;105.47;43.78;;;;;;;;;;6181756;28;19925;-77
2022/11/20 04:10:16;;;;;;;97.90;42.37;;;;;;;;;;6199160;28;20630;-77
2022/11/20 04:13:17;;;;;;;96.77;40.37;;;;;;;;;;6199490;28;20497;-77
2022/11/20 04:16:17;;;;;;;116.73;47.47;;;;;;;;;;6200355;28;20011;-77
2022/11/20 04:19:17;;;;;;;108.63;50.47;;;;;;;;;;6200048;28;20434;-78
2022/11/20 04:22:18;;;;;;;124.97;51.87;;;;;;;;;;6182579;28;20014;-77
2022/11/20 04:25:18;;;;;;;119.90;50.50;;;;;;;;;;6199885;28;20015;-77
2022/11/20 04:28:18;;;;;;;108.00;44.40;;;;;;;;;;6197698;28;20037;-78
2022/11/20 04:31:22;;;;;;;87.13;36.93;;;;;;;;;;6201370;28;20427;-77
2022/11/20 04:34:22;;;;;;;107.22;43.40;;;;;;;;;;6183252;28;20026;-78
2022/11/20 04:37:23;;;;;;;119.77;45.03;;;;;;;;;;6198758;28;20068;-78
2022/11/20 04:40:23;;;;;;;108.97;45.30;;;;;;;;;;6180598;28;20018;-78
2022/11/20 04:43:23;;;;;;;103.00;48.77;;;;;;;;;;6182498;28;20304;-77
2022/11/20 04:46:23;;;;;;;117.77;47.87;;;;;;;;;;6181874;28;20026;-78
2022/11/20 04:49:24;;;;;;;120.15;49.83;;;;;;;;;;6197720;28;20038;-78
2022/11/20 04:52:24;;;;;;;101.22;43.30;;;;;;;;;;6181539;28;20077;-78
2022/11/20 04:55:24;;;;;;;109.70;50.13;;;;;;;;;;6181789;28;20060;-78
2022/11/20 04:58:24;;;;;;;119.47;45.63;;;;;;;;;;6197235;28;20030;-78
2022/11/20 05:01:24;;;;;;;100.60;45.17;;;;;;;;;;6178836;28;20022;-78
2022/11/20 05:04:25;;;;;;;117.43;49.13;;;;;;;;;;6197284;28;20490;-78
2022/11/20 05:07:25;;;;;;;107.93;46.67;;;;;;;;;;6196260;28;20520;-78
2022/11/20 05:10:27;;;;;;;98.13;44.83;;;;;;;;;;6197079;28;20033;-78
2022/11/20 05:13:27;;;;;;;112.00;44.30;;;;;;;;;;6197854;28;20066;-78
2022/11/20 05:16:27;;;;;;;97.60;40.20;;;;;;;;;;6198174;28;20022;-78
2022/11/20 05:19:27;;;;;;;89.73;37.23;;;;;;;;;;6198191;28;20025;-78
2022/11/20 05:22:27;;;;;;;100.13;41.83;;;;;;;;;;6198849;28;20123;-78
2022/11/20 05:25:28;;;;;;;97.45;40.70;;;;;;;;;;6197400;28;20018;-77
2022/11/20 05:28:28;;;;;;;100.30;42.47;;;;;;;;;;6179550;28;20105;-77
2022/11/20 05:31:29;;;;;;;108.10;43.03;;;;;;;;;;6201174;28;20014;-78
2022/11/20 05:34:29;;;;;;;100.10;41.30;;;;;;;;;;6200417;28;20281;-78
2022/11/20 05:37:29;;;;;;;85.07;42.47;;;;;;;;;;6180213;28;20121;-78
2022/11/20 05:40:29;;;;;;;89.80;40.10;;;;;;;;;;6195867;28;20034;-78
2022/11/20 05:43:31;;;;;;;99.67;43.37;;;;;;;;;;6194750;28;20034;-78
2022/11/20 05:46:31;;;;;;;107.22;41.13;;;;;;;;;;6178778;28;20105;-77
2022/11/20 05:49:32;;;;;;;93.63;40.60;;;;;;;;;;6195509;28;20025;-78
2022/11/20 05:52:32;;;;;;;116.27;43.27;;;;;;;;;;6195116;28;20022;-79
2022/11/20 05:55:32;;;;;;;93.27;38.93;;;;;;;;;;6197597;28;20043;-78
2022/11/20 05:58:33;;;;;;;101.80;44.03;;;;;;;;;;6197716;28;20022;-77
2022/11/20 06:01:33;;;;;;;129.87;44.27;;;;;;;;;;6184929;28;20073;-78
2022/11/20 06:04:33;;;;;;;101.97;42.47;;;;;;;;;;6200503;28;20030;-78
2022/11/20 06:07:33;;;;;;;101.03;41.45;;;;;;;;;;6201366;28;20048;-78
2022/11/20 06:10:34;;;;;;;93.17;39.63;;;;;;;;;;6202210;28;20022;-77
2022/11/20 06:13:34;;;;;;;99.38;40.95;;;;;;;;;;6201560;28;20023;-77
2022/11/20 06:16:34;;;;;;;102.50;42.87;;;;;;;;;;6201281;28;20123;-78
2022/11/20 06:19:36;;;;;;;91.17;40.53;;;;;;;;;;6200505;28;20477;-77
2022/11/20 06:22:36;;;;;;;87.55;39.25;;;;;;;;;;6184419;28;20049;-78
2022/11/20 06:25:40;;;;;;;99.47;42.80;;;;;;;;;;6184116;28;20025;-79
2022/11/20 06:28:40;;;;;;;113.35;45.60;;;;;;;;;;6199691;28;20395;-78
2022/11/20 06:31:42;;;;;;;124.33;50.83;;;;;;;;;;6204016;28;20015;-78
2022/11/20 06:34:42;;;;;;;103.10;44.30;;;;;;;;;;6202600;28;20014;-78
2022/11/20 06:37:42;;;;;;;161.75;63.50;;;;;;;;;;6201606;28;20456;-78
2022/11/20 06:40:43;;;;;;;239.07;85.37;;;;;;;;;;6201470;28;20053;-78
2022/11/20 06:43:43;;;;;;;220.73;84.57;;;;;;;;;;6178720;28;20032;-78
2022/11/20 06:46:43;;;;;;;195.07;93.07;;;;;;;;;;6201663;28;20515;-78
2022/11/20 06:49:43;;;;;;;200.48;77.22;;;;;;;;;;6201036;28;20022;-78
2022/11/20 06:52:44;;;;;;;237.80;88.03;;;;;;;;;;6201043;28;20383;-78
2022/11/20 06:55:44;;;;;;;237.47;90.50;;;;;;;;;;6201130;28;20034;-78
2022/11/20 06:58:45;;;;;;;249.23;95.17;;;;;;;;;;6201743;28;20034;-77
2022/11/20 07:01:45;;;;;;;198.47;84.20;;;;;;;;;;6201434;28;20038;-79
2022/11/20 07:04:45;;;;;;;139.20;59.30;;;;;;;;;;6201322;28;20034;-79
2022/11/20 07:07:45;;;;;;;120.27;59.53;;;;;;;;;;6208303;28;20046;-77
2022/11/20 07:10:45;;;;;;;88.43;45.00;;;;;;;;;;6200070;28;20425;-77
2022/11/20 07:13:46;;;;;;;127.30;61.33;;;;;;;;;;6200467;28;20423;-78
2022/11/20 07:16:46;;;;;;;106.72;50.85;;;;;;;;;;6200550;28;20023;-78
2022/11/20 07:19:46;;;;;;;91.85;45.10;;;;;;;;;;6201347;28;20061;-79
2022/11/20 07:22:46;;;;;;;92.80;47.40;;;;;;;;;;6184932;28;20042;-80
2022/11/20 07:25:46;;;;;;;100.57;49.40;;;;;;;;;;6201720;28;20057;-78
2022/11/20 07:28:47;;;;;;;103.93;52.40;;;;;;;;;;6202703;28;20038;-78
2022/11/20 07:31:47;;;;;;;115.57;54.93;;;;;;;;;;6200290;28;20505;-78
2022/11/20 07:34:47;;;;;;;105.15;56.70;;;;;;;;;;6181972;28;20050;-78
2022/11/20 07:37:48;;;;;;;110.27;53.63;;;;;;;;;;6200295;28;20146;-77
2022/11/20 07:40:52;;;;;;;102.20;52.23;;;;;;;;;;6202293;28;20018;-77
2022/11/20 07:43:53;;;;;;;95.82;49.92;;;;;;;;;;6198142;28;20492;-77
2022/11/20 07:46:53;;;;;;;95.83;48.53;;;;;;;;;;6197710;28;20037;-77
2022/11/20 07:49:53;;;;;;;99.43;49.40;;;;;;;;;;6198153;28;20018;-78
2022/11/20 07:53:00;;;;;;;100.90;55.13;;;;;;;;;;6180623;28;20014;-78
2022/11/20 07:56:01;;;;;;;101.50;51.80;;;;;;;;;;6199876;28;20026;-78
2022/11/20 07:59:01;;;;;;;102.00;51.50;;;;;;;;;;6183077;28;20022;-78
2022/11/20 08:02:01;;;;;;;87.80;45.93;;;;;;;;;;6181683;28;20030;-78
2022/11/20 08:05:01;;;;;;;92.60;45.92;;;;;;;;;;6199695;28;20479;-78
2022/11/20 08:08:02;;;;;;;89.00;47.57;;;;;;;;;;6209475;28;20046;-79
2022/11/20 08:14:21;;;;;;;88.85;46.83;;;;;;;;;;6200647;28;20089;-79
2022/11/20 08:17:21;;;;;;;100.10;52.53;;;;;;;;;;6216465;28;20113;-82
2022/11/20 08:20:21;;;;;;;93.30;50.50;;;;;;;;;;6209434;28;20061;-81
2022/11/20 08:23:25;;;;;;;90.70;48.30;;;;;;;;;;6219320;28;20113;-81
2022/11/20 08:26:26;;;;;;;95.70;52.30;;;;;;;;;;6194074;28;20117;-82
2022/11/20 08:29:30;;;;;;;90.00;45.93;;;;;;;;;;6192382;28;20029;-82
2022/11/20 08:32:35;;;;;;;92.18;46.67;;;;;;;;;;6205989;28;20018;-83
2022/11/20 08:35:37;;;;;;;99.00;52.35;;;;;;;;;;6214031;28;20022;-83
2022/11/20 08:38:37;;;;;;;;;;;;;;;;;;6196901;28;20081;-83
2022/11/20 08:41:37;;;;;;;105.22;57.70;;;;;;;;;;6188093;28;19910;-84
2022/11/20 08:44:38;;;;;;;106.83;57.67;;;;;;;;;;6214762;28;20082;-83
2022/11/20 08:47:39;;;;;;;109.97;59.50;;;;;;;;;;6197430;28;20031;-83
2022/11/20 08:50:39;;;;;;;105.93;56.78;;;;;;;;;;6194334;28;20070;-84
2022/11/20 08:53:43;;;;;;;121.07;65.68;;;;;;;;;;6217987;28;20090;-84
2022/11/20 08:56:43;;;;;;;103.70;56.28;;;;;;;;;;6197399;28;20035;-85
2022/11/20 08:59:44;;;;;;;108.97;57.50;;;;;;;;;;6196849;28;20014;-85
2022/11/20 09:02:44;;;;;;;98.40;52.70;;;;;;;;;;6213550;28;20018;-84
2022/11/20 09:05:44;;;;;;;90.93;47.60;;;;;;;;;;6212862;28;20371;-85
2022/11/20 09:08:45;;;;;;;89.23;49.47;;;;;;;;;;6194039;28;20160;-86
2022/11/20 09:11:45;;;;;;;98.73;49.67;;;;;;;;;;6191701;28;20094;-84
2022/11/20 09:14:46;;;;;;;94.10;47.53;;;;;;;;;;6214712;28;19998;-84
2022/11/20 09:18:12;;;;;;;69.47;40.80;;;;;;;;;;6198796;28;20038;-85
2022/11/20 09:21:16;;;;;;;89.22;50.78;;;;;;;;;;6185348;28;20540;-83
2022/11/20 09:24:17;;;;;;;88.70;49.38;;;;;;;;;;6196730;28;20041;-84
2022/11/20 09:27:24;;;;;;;94.63;52.38;;;;;;;;;;6213065;28;20030;-83
2022/11/20 09:30:25;;;;;;;104.55;54.67;;;;;;;;;;6210394;28;20061;-83
2022/11/20 09:33:30;;;;;;;61.13;33.43;;;;;;;;;;6189566;28;20105;-83
2022/11/20 09:36:30;;;;;;;91.65;48.40;;;;;;;;;;6214852;28;20038;-84
2022/11/20 09:39:34;;;;;;;98.50;52.43;;;;;;;;;;6194519;28;20058;-83
2022/11/20 09:42:45;;;;;;;100.93;54.60;;;;;;;;;;6210896;28;20030;-83
2022/11/20 09:45:45;;;;;;;89.93;48.95;;;;;;;;;;6187251;28;20062;-83
2022/11/20 09:48:55;;;;;;;92.93;48.33;;;;;;;;;;6205842;28;20429;-83
2022/11/20 09:51:59;;;;;;;104.00;55.97;;;;;;;;;;6189307;28;20010;-83
2022/11/20 09:55:01;;;;;;;100.18;58.05;;;;;;;;;;6183292;28;20054;-83
2022/11/20 09:58:05;;;;;;;101.60;58.00;;;;;;;;;;6202174;28;20023;-82
2022/11/20 10:01:13;;;;;;;108.15;58.28;;;;;;;;;;6183299;28;20027;-83
2022/11/20 10:04:19;;;;;;;110.47;57.72;;;;;;;;;;6183057;28;20026;-83
2022/11/20 10:07:24;;;;;;;102.45;56.38;;;;;;;;;;6199094;28;20506;-82
2022/11/20 10:10:30;;;;;;;103.65;59.13;;;;;;;;;;6199644;28;20015;-82
2022/11/20 10:13:45;;;;;;;106.95;60.92;;;;;;;;;;6202297;28;20018;-82
2022/11/20 10:16:54;;;;;;;112.60;57.72;;;;;;;;;;6203331;28;20022;-82
2022/11/20 10:20:01;;;;;;;130.25;68.13;;;;;;;;;;6205918;28;20149;-82
2022/11/20 10:23:04;;;;;;;125.30;66.93;;;;;;;;;;6202746;28;20018;-82
2022/11/20 10:26:19;;;;;;;116.90;63.10;;;;;;;;;;6207755;28;20041;-82
2022/11/20 10:29:24;;;;;;;117.13;66.07;;;;;;;;;;6205539;28;20109;-81
2022/11/20 10:32:29;;;;;;;115.97;67.30;;;;;;;;;;6205261;28;20058;-81
2022/11/20 10:35:42;;;;;;;112.82;68.03;;;;;;;;;;6206030;28;20216;-81
2022/11/20 10:38:51;;;;;;;110.53;67.85;;;;;;;;;;6208007;28;20120;-82
2022/11/20 10:41:53;;;;;;;110.57;68.43;;;;;;;;;;6208028;28;20033;-80
2022/11/20 10:45:01;;;;;;;100.22;56.70;;;;;;;;;;6199742;28;20014;-81
2022/11/20 10:48:07;;;;;;;100.18;55.08;;;;;;;;;;6224098;28;20090;-80
2022/11/20 10:51:13;;;;;;;89.90;51.97;;;;;;;;;;6213957;28;20034;-81
2022/11/20 10:54:17;;;;;;;90.47;46.95;;;;;;;;;;6201467;28;20538;-80
2022/11/20 10:57:23;;;;;;;91.95;50.97;;;;;;;;;;6198863;28;20038;-81
2022/11/20 11:00:24;;;;;;;94.47;55.47;;;;;;;;;;6218923;28;20096;-80
2022/11/20 11:03:27;;;;;;;93.13;51.17;;;;;;;;;;6216290;28;20010;-80
2022/11/20 11:06:42;;;;;;;92.93;51.67;;;;;;;;;;6196757;28;20054;-80
2022/11/20 11:09:43;;;;;;;106.05;57.33;;;;;;;;;;6214276;28;20015;-80
2022/11/20 11:12:49;;;;;;;106.05;59.13;;;;;;;;;;6213516;28;20022;-80
2022/11/20 11:15:50;;;;;;;97.80;52.15;;;;;;;;;;6211363;28;20002;-80
2022/11/20 11:18:50;;;;;;;97.60;56.77;;;;;;;;;;6216514;28;20378;-80
2022/11/20 11:21:56;;;;;;;90.63;53.77;;;;;;;;;;6211970;28;20030;-80
2022/11/20 11:24:56;;;;;;;96.75;54.08;;;;;;;;;;6206864;28;20057;-80
2022/11/20 11:27:59;;;;;;;94.27;50.67;;;;;;;;;;6207603;28;20105;-79
2022/11/20 11:30:59;;;;;;;87.85;49.10;;;;;;;;;;6203670;28;20484;-79
2022/11/20 11:34:16;;;;;;;92.50;50.40;;;;;;;;;;6209017;28;20022;-79
2022/11/20 11:37:18;;;;;;;96.72;50.97;;;;;;;;;;6199822;28;20022;-79
2022/11/20 11:40:19;;;;;;;86.60;48.05;;;;;;;;;;6215421;28;20080;-79
2022/11/20 11:46:43;;;;;;;87.35;46.88;;;;;;;;;;6212624;28;20541;-79
2022/11/20 11:49:44;;;;;;;87.45;47.38;;;;;;;;;;6199385;28;20022;-78
2022/11/20 11:52:48;;;;;;;85.07;42.97;;;;;;;;;;6212117;28;20081;-79
2022/11/20 11:55:54;;;;;;;99.25;49.42;;;;;;;;;;6190794;28;20023;-79
2022/11/20 11:58:59;;;;;;;93.45;50.78;;;;;;;;;;6208465;28;20027;-77
2022/11/20 12:02:03;;;;;;;102.18;55.22;;;;;;;;;;6206386;28;20014;-77
2022/11/20 12:05:10;;;;;;;104.38;58.95;;;;;;;;;;6186354;28;20057;-78
2022/11/20 12:08:40;;;;;;;66.05;38.15;;;;;;;;;;6201849;28;20119;-78
2022/11/20 12:11:55;;;;;;;59.78;33.92;;;;;;;;;;6187941;28;20034;-78
2022/11/20 12:14:57;;;;;;;53.45;29.98;;;;;;;;;;6195833;28;20493;-78
2022/11/20 12:17:57;;;;;;;54.97;30.13;;;;;;;;;;6201760;28;20026;-78
2022/11/20 12:20:57;;;;;;;60.10;33.43;;;;;;;;;;6183314;28;20120;-77
2022/11/20 12:24:12;;;;;;;61.38;32.00;;;;;;;;;;6199188;28;20029;-77
2022/11/20 12:27:28;;;;;;;55.88;32.72;;;;;;;;;;6181837;28;20038;-77
2022/11/20 12:30:30;;;;;;;61.78;31.55;;;;;;;;;;6194893;28;20262;-78
2022/11/20 12:33:46;;;;;;;64.00;34.20;;;;;;;;;;6183819;28;20490;-77
2022/11/20 12:36:50;;;;;;;66.88;36.00;;;;;;;;;;6198486;28;20109;-77
2022/11/20 12:39:50;;;;;;;59.50;32.95;;;;;;;;;;6178163;28;20061;-78
2022/11/20 12:46:41;;;;;;;55.13;30.70;;;;;;;;;;6196013;28;20684;-78
2022/11/20 12:49:41;;;;;;;56.75;32.03;;;;;;;;;;6195009;28;20018;-76
2022/11/20 12:52:47;;;;;;;60.80;30.60;;;;;;;;;;6194593;28;20083;-76
2022/11/20 12:55:54;;;;;;;56.85;31.08;;;;;;;;;;6193584;28;20026;-76
2022/11/20 12:59:14;;;;;;;65.07;33.45;;;;;;;;;;6194534;28;20391;-76
2022/11/20 13:02:17;;;;;;;66.32;37.42;;;;;;;;;;6193526;28;20121;-76
2022/11/20 13:05:38;;;;;;;65.18;37.63;;;;;;;;;;6195097;28;20097;-76
2022/11/20 13:08:39;;;;;;;60.30;32.17;;;;;;;;;;6178103;28;20141;-75
2022/11/20 13:11:46;;;;;;;61.70;35.00;;;;;;;;;;6193760;28;20018;-75
2022/11/20 13:15:05;;;;;;;59.40;31.85;;;;;;;;;;6194244;28;20101;-76
2022/11/20 13:18:09;;;;;;;62.85;35.28;;;;;;;;;;6192418;28;20022;-75
2022/11/20 13:21:15;;;;;;;59.15;34.00;;;;;;;;;;6193564;28;20037;-75
2022/11/20 13:24:18;;;;;;;92.20;43.88;;;;;;;;;;6189089;28;20081;-75
2022/11/20 13:27:20;;;;;;;67.03;37.00;;;;;;;;;;6188591;28;20068;-75
2022/11/20 13:30:22;;;;;;;107.13;59.40;;;;;;;;;;6193172;28;20442;-75
2022/11/20 13:33:32;;;;;;;98.65;57.97;;;;;;;;;;6191748;28;20117;-75
2022/11/20 13:36:34;;;;;;;84.20;50.78;;;;;;;;;;6193761;28;20501;-75
2022/11/20 13:39:35;;;;;;;70.82;39.60;;;;;;;;;;6196750;28;20026;-74
2022/11/20 13:42:38;;;;;;;64.22;35.50;;;;;;;;;;6206698;28;20050;-74
2022/11/20 13:45:38;;;;;;;59.67;35.75;;;;;;;;;;6193412;28;20070;-74
2022/11/20 13:48:43;;;;;;;57.70;34.40;;;;;;;;;;6195825;28;20034;-74
2022/11/20 13:51:47;;;;;;;61.80;32.75;;;;;;;;;;6196153;28;20054;-75
2022/11/20 13:54:51;;;;;;;64.20;35.70;;;;;;;;;;6195125;28;20022;-75
2022/11/20 13:58:10;;;;;;;62.10;33.40;;;;;;;;;;6196390;28;20482;-74
2022/11/20 14:01:19;;;;;;;62.17;34.63;;;;;;;;;;6184892;28;20026;-75
2022/11/20 14:04:37;;;;;;;63.60;34.35;;;;;;;;;;6191096;28;20015;-76
2022/11/20 14:07:40;;;;;;;68.13;36.38;;;;;;;;;;6194473;28;20054;-75
2022/11/20 14:10:40;;;;;;;76.65;39.80;;;;;;;;;;6195619;28;20466;-75
2022/11/20 14:13:51;;;;;;;91.45;47.90;;;;;;;;;;6196691;28;20010;-76
2022/11/20 14:16:52;;;;;;;81.40;44.55;;;;;;;;;;6196691;28;20104;-76
2022/11/20 14:19:53;;;;;;;82.03;45.33;;;;;;;;;;6195919;28;20109;-76
2022/11/20 14:22:54;;;;;;;83.13;46.50;;;;;;;;;;6200254;28;20048;-76
2022/11/20 14:25:54;;;;;;;132.67;62.07;;;;;;;;;;6201464;28;20494;-76
2022/11/20 14:28:55;;;;;;;77.43;43.10;;;;;;;;;;6200922;28;20523;-77
2022/11/20 14:31:56;;;;;;;79.17;41.47;;;;;;;;;;6199518;28;20067;-77
2022/11/20 14:34:59;;;;;;;77.57;43.27;;;;;;;;;;6201027;28;20042;-77
2022/11/20 14:38:01;;;;;;;86.72;43.03;;;;;;;;;;6198108;28;20034;-76
2022/11/20 14:41:01;;;;;;;;;;;;;;;;;;6183363;28;20019;-76
2022/11/20 14:44:02;;;;;;;113.25;56.65;;;;;;;;;;6201080;28;19993;-76
2022/11/20 14:47:03;;;;;;;229.35;91.82;;;;;;;;;;6200087;28;20026;-76
2022/11/20 14:50:08;;;;;;;212.13;94.83;;;;;;;;;;6201072;28;20497;-75
2022/11/20 14:53:08;;;;;;;169.63;77.05;;;;;;;;;;6201104;28;20018;-75
2022/11/20 14:56:08;;;;;;;165.50;78.87;;;;;;;;;;6200474;28;20038;-75
2022/11/20 14:59:09;;;;;;;190.97;83.80;;;;;;;;;;6199935;28;20101;-75
2022/11/20 15:02:10;;;;;;;189.17;84.70;;;;;;;;;;6199884;28;20056;-75
2022/11/20 15:05:11;;;;;;;169.45;81.55;;;;;;;;;;6182647;28;20030;-76
2022/11/20 15:08:12;;;;;;;150.37;73.53;;;;;;;;;;6201668;28;20041;-75
2022/11/20 15:11:20;;;;;;;125.57;65.17;;;;;;;;;;6199648;28;20064;-75
2022/11/20 15:14:20;;;;;;;123.63;65.15;;;;;;;;;;6198946;28;20486;-75
2022/11/20 15:17:20;;;;;;;105.63;53.30;;;;;;;;;;6200108;28;20098;-75
2022/11/20 15:20:23;;;;;;;95.30;53.33;;;;;;;;;;6183337;28;20363;-75
2022/11/20 15:23:23;;;;;;;194.68;89.28;;;;;;;;;;6198001;28;20029;-74
2022/11/20 15:26:25;;;;;;;109.97;61.10;;;;;;;;;;6197992;28;20026;-74
2022/11/20 15:29:25;;;;;;;105.65;58.28;;;;;;;;;;6180538;28;20029;-75
2022/11/20 15:32:25;;;;;;;120.40;63.72;;;;;;;;;;6197145;28;20018;-74
2022/11/20 15:35:26;;;;;;;115.50;62.83;;;;;;;;;;6195400;28;20109;-75
2022/11/20 15:38:26;;;;;;;128.77;65.43;;;;;;;;;;6197067;28;20033;-74
2022/11/20 15:41:26;;;;;;;105.68;56.17;;;;;;;;;;6198490;28;20061;-74
2022/11/20 15:44:26;;;;;;;83.95;48.20;;;;;;;;;;6198234;28;20390;-74
2022/11/20 15:47:29;;;;;;;87.27;48.33;;;;;;;;;;6198354;28;20113;-74
2022/11/20 15:50:32;;;;;;;91.60;48.05;;;;;;;;;;6195708;28;20483;-74
2022/11/20 15:53:33;;;;;;;101.28;52.55;;;;;;;;;;6196028;28;20117;-74
2022/11/20 15:56:33;;;;;;;94.00;46.23;;;;;;;;;;6197428;28;20023;-74
2022/11/20 15:59:34;;;;;;;87.70;45.30;;;;;;;;;;6197281;28;20367;-74
2022/11/20 16:02:34;;;;;;;78.47;43.20;;;;;;;;;;6194894;28;20379;-75
2022/11/20 16:05:34;;;;;;;72.10;39.53;;;;;;;;;;6196016;28;20124;-74
2022/11/20 16:08:34;;;;;;;76.27;42.33;;;;;;;;;;6196578;28;20022;-74
2022/11/20 16:11:36;;;;;;;114.30;60.33;;;;;;;;;;6197295;28;20018;-74
2022/11/20 16:17:55;;;;;;;102.53;53.15;;;;;;;;;;6194279;28;20487;-75
2022/11/20 16:20:55;;;;;;;105.38;58.08;;;;;;;;;;6196520;28;20080;-76
2022/11/20 16:23:56;;;;;;;103.83;55.67;;;;;;;;;;6195933;28;20018;-74
2022/11/20 16:26:57;;;;;;;100.13;56.40;;;;;;;;;;6195099;28;20050;-74
2022/11/20 16:29:57;;;;;;;130.80;60.83;;;;;;;;;;6196013;28;20611;-74
2022/11/20 16:32:57;;;;;;;131.30;69.43;;;;;;;;;;6195941;28;20422;-74
2022/11/20 16:35:57;;;;;;;140.43;82.50;;;;;;;;;;6196232;28;20019;-75
2022/11/20 16:39:02;;;;;;;119.93;70.05;;;;;;;;;;6178220;28;20049;-75
2022/11/20 16:42:03;;;;;;;123.10;72.78;;;;;;;;;;6195652;28;20029;-75
2022/11/20 16:45:03;;;;;;;134.32;73.20;;;;;;;;;;6196055;28;20121;-75
2022/11/20 16:48:04;;;;;;;118.23;65.30;;;;;;;;;;6196153;28;20060;-75
2022/11/20 16:51:07;;;;;;;125.17;71.97;;;;;;;;;;6195958;28;20385;-74
2022/11/20 16:54:08;;;;;;;163.20;87.20;;;;;;;;;;6195828;28;20041;-74
2022/11/20 16:57:08;;;;;;;160.98;88.13;;;;;;;;;;6177177;28;20026;-74
2022/11/20 17:00:08;;;;;;;147.90;82.03;;;;;;;;;;6196417;28;20085;-74
2022/11/20 17:03:09;;;;;;;131.30;76.27;;;;;;;;;;6187217;28;20386;-75
2022/11/20 17:06:19;;;;;;;133.97;77.10;;;;;;;;;;6180302;28;20057;-75
2022/11/20 17:09:21;;;;;;;155.27;83.05;;;;;;;;;;6195958;28;20030;-75
2022/11/20 17:12:21;;;;;;;258.83;115.97;;;;;;;;;;6193599;28;20676;-75
2022/11/20 17:15:22;;;;;;;142.53;80.13;;;;;;;;;;6197982;28;20616;-74
2022/11/20 17:18:22;;;;;;;138.67;78.00;;;;;;;;;;6195135;28;20030;-75
2022/11/20 17:21:23;;;;;;;239.30;111.77;;;;;;;;;;6196077;28;20026;-74
2022/11/20 17:24:23;;;;;;;161.73;81.33;;;;;;;;;;6193332;28;20399;-75
2022/11/20 17:27:23;;;;;;;148.13;81.15;;;;;;;;;;6193496;28;20391;-74
2022/11/20 17:30:23;;;;;;;139.57;74.63;;;;;;;;;;6194382;28;20042;-75
2022/11/20 17:33:23;;;;;;;137.47;73.33;;;;;;;;;;6193562;28;20064;-75
2022/11/20 17:36:24;;;;;;;142.30;76.85;;;;;;;;;;6193949;28;20104;-74
2022/11/20 17:39:24;;;;;;;133.77;75.95;;;;;;;;;;6195295;28;20391;-75
2022/11/20 17:42:28;;;;;;;143.73;80.60;;;;;;;;;;6194293;28;20025;-74
2022/11/20 17:45:28;;;;;;;153.38;84.30;;;;;;;;;;6194668;28;20560;-75
2022/11/20 17:48:29;;;;;;;152.32;82.88;;;;;;;;;;6194731;28;20546;-75
2022/11/20 17:51:30;;;;;;;154.27;82.00;;;;;;;;;;6175763;28;20014;-76
2022/11/20 17:54:31;;;;;;;163.43;81.38;;;;;;;;;;6193569;28;20025;-75